Terminal Aerodrome Forecast
Issued by NWS Jackson, MS

Home | Current Version | Previous Version | Text Only | Print | Product List | Glossary On
Versions: 1 2 3 4 5 6 7 8 9 10 11 12 13 14 15 16
000
FTUS44 KJAN 301000 AAA
TAFGLH
TAF AMD
KGLH 301008Z 3010/3106 16004KT 6SM -RA SCT040 OVC110
     FM301400 17008KT 3SM SHRA VCTS BKN018 OVC030CB
     FM301900 19009KT 6SM -RA VCTS OVC035CB=

USA.gov is the U.S. government's official web portal to all federal, state and local government web resources and services.